createdAt,value
2017-10-27T00:00:55.817Z,87.70
2017-10-27T00:03:24.502Z,88.40
2017-10-27T00:05:53.269Z,88.90
2017-10-27T00:08:21.483Z,88.80
2017-10-27T00:10:49.817Z,89.00
2017-10-27T00:13:18.215Z,89.30
2017-10-27T00:15:46.821Z,89.20
2017-10-27T00:18:14.945Z,88.90
2017-10-27T00:20:43.888Z,88.40
2017-10-27T00:23:12.037Z,87.60
2017-10-27T00:25:39.883Z,86.70
2017-10-27T00:28:08.944Z,86.50
2017-10-27T00:30:36.873Z,85.10
2017-10-27T00:33:05.063Z,84.90
2017-10-27T00:35:34.155Z,85.20
2017-10-27T00:38:02.958Z,85.10
2017-10-27T00:40:30.978Z,85.10
2017-10-27T00:42:58.946Z,85.10
2017-10-27T00:45:26.938Z,84.70
2017-10-27T00:47:55.402Z,84.80
2017-10-27T00:50:24.690Z,84.60
2017-10-27T00:52:52.655Z,84.50
2017-10-27T00:55:20.493Z,84.60
2017-10-27T00:57:48.239Z,84.50
2017-10-27T01:00:17.542Z,84.50
2017-10-27T01:02:46.183Z,84.60
2017-10-27T01:05:14.436Z,84.60
2017-10-27T01:07:43.228Z,84.40
2017-10-27T01:10:12.014Z,84.80
2017-10-27T01:12:40.063Z,84.70
2017-10-27T01:15:08.321Z,84.70
2017-10-27T01:17:36.409Z,84.70
2017-10-27T01:20:04.494Z,84.80
2017-10-27T01:22:32.843Z,84.80
2017-10-27T01:25:01.294Z,84.90
2017-10-27T01:27:29.661Z,84.80
2017-10-27T01:29:57.770Z,85.00
2017-10-27T01:32:25.933Z,85.50
2017-10-27T01:34:54.099Z,85.50
2017-10-27T01:37:22.964Z,86.00
2017-10-27T01:39:50.894Z,85.80
2017-10-27T01:42:19.515Z,84.10
2017-10-27T01:44:47.765Z,84.00
2017-10-27T01:47:15.998Z,83.80
2017-10-27T01:49:44.129Z,84.00
2017-10-27T01:52:12.489Z,84.50
2017-10-27T01:54:40.485Z,85.10
2017-10-27T01:57:08.438Z,85.00
2017-10-27T01:59:36.746Z,84.30
2017-10-27T02:02:04.655Z,83.50
2017-10-27T02:04:32.328Z,84.00
2017-10-27T02:07:00.747Z,84.00
2017-10-27T02:09:29.738Z,84.20
2017-10-27T02:11:57.541Z,84.80
2017-10-27T02:14:25.804Z,84.90
2017-10-27T02:16:54.832Z,85.70
2017-10-27T02:19:22.681Z,86.40
2017-10-27T02:21:50.727Z,85.90
2017-10-27T02:24:18.724Z,85.80
2017-10-27T02:26:47.067Z,85.70
2017-10-27T02:29:14.922Z,86.00
2017-10-27T02:31:43.101Z,85.50
2017-10-27T02:34:10.985Z,85.70
2017-10-27T02:36:40.199Z,85.70
2017-10-27T02:39:09.089Z,85.70
2017-10-27T02:41:37.221Z,85.70
2017-10-27T02:44:05.075Z,86.10
2017-10-27T02:46:33.002Z,85.70
2017-10-27T02:49:01.501Z,85.90
2017-10-27T02:51:29.630Z,86.10
2017-10-27T02:53:57.633Z,86.30
2017-10-27T02:56:26.049Z,86.50
2017-10-27T02:58:54.509Z,86.40
2017-10-27T03:01:23.143Z,86.50
2017-10-27T03:03:51.564Z,86.70
2017-10-27T03:06:19.474Z,87.20
2017-10-27T03:08:47.294Z,86.70
2017-10-27T03:11:15.059Z,87.00
2017-10-27T03:13:43.054Z,86.90
2017-10-27T03:16:11.064Z,86.80
2017-10-27T03:18:39.020Z,86.70
2017-10-27T03:21:07.366Z,86.70
2017-10-27T03:23:35.364Z,86.60
2017-10-27T03:26:03.605Z,87.00
2017-10-27T03:28:31.430Z,87.00
2017-10-27T03:31:00.548Z,87.60
2017-10-27T03:33:28.981Z,87.50
2017-10-27T03:35:56.836Z,88.70
2017-10-27T03:38:24.633Z,88.90
2017-10-27T03:40:52.929Z,89.10
2017-10-27T03:43:20.870Z,89.30
2017-10-27T03:45:48.864Z,89.30
2017-10-27T03:48:17.615Z,89.50
2017-10-27T03:50:45.318Z,89.50
2017-10-27T03:53:14.121Z,91.10
2017-10-27T03:55:42.331Z,90.90
2017-10-27T03:58:10.838Z,91.40
2017-10-27T04:00:39.568Z,90.50
2017-10-27T04:03:07.307Z,90.40
2017-10-27T04:05:36.554Z,90.40
2017-10-27T04:08:05.181Z,90.30
2017-10-27T04:10:33.344Z,90.80
2017-10-27T04:13:01.504Z,90.30
2017-10-27T04:15:29.989Z,89.90
2017-10-27T04:17:57.740Z,90.20
2017-10-27T04:20:25.628Z,90.30
2017-10-27T04:22:53.763Z,90.10
2017-10-27T04:25:22.303Z,90.00
2017-10-27T04:27:50.974Z,89.50
2017-10-27T04:30:18.725Z,89.50
2017-10-27T04:32:47.295Z,89.70
2017-10-27T04:35:15.720Z,89.50
2017-10-27T04:37:44.387Z,89.40
2017-10-27T04:40:12.664Z,89.50
2017-10-27T04:42:41.021Z,89.70
2017-10-27T04:45:08.775Z,89.70
2017-10-27T04:47:36.724Z,89.30
2017-10-27T04:50:04.766Z,88.90
2017-10-27T04:52:33.434Z,88.70
2017-10-27T04:55:01.422Z,88.70
2017-10-27T04:57:29.435Z,89.10
2017-10-27T04:59:57.472Z,89.00
2017-10-27T05:02:25.228Z,89.50
2017-10-27T05:04:54.178Z,88.70
2017-10-27T05:07:22.160Z,88.60
2017-10-27T05:09:49.853Z,88.30
2017-10-27T05:12:18.405Z,88.30
2017-10-27T05:14:46.540Z,88.30
2017-10-27T05:17:14.322Z,88.00
2017-10-27T05:19:42.592Z,88.00
2017-10-27T05:22:10.823Z,88.30
2017-10-27T05:24:40.000Z,88.40
2017-10-27T05:27:08.351Z,88.40
2017-10-27T05:29:36.671Z,88.30
2017-10-27T05:32:05.651Z,89.00
2017-10-27T05:34:33.680Z,88.90
2017-10-27T05:37:01.430Z,90.20
2017-10-27T05:39:29.412Z,90.10
2017-10-27T05:41:57.090Z,90.40
2017-10-27T05:44:25.150Z,91.30
2017-10-27T05:46:53.061Z,91.50
2017-10-27T05:49:21.212Z,91.50
2017-10-27T05:51:49.272Z,91.60
2017-10-27T05:54:17.502Z,91.20
2017-10-27T05:56:45.595Z,90.60
2017-10-27T05:59:14.713Z,90.00
2017-10-27T06:01:43.024Z,89.50
2017-10-27T06:04:11.237Z,89.10
2017-10-27T06:06:40.062Z,88.90
2017-10-27T06:09:08.014Z,88.30
2017-10-27T06:11:35.781Z,89.50
2017-10-27T06:14:03.572Z,90.00
2017-10-27T06:16:31.498Z,90.40
2017-10-27T06:18:59.513Z,90.70
2017-10-27T06:21:27.829Z,91.10
2017-10-27T06:23:55.892Z,91.40
2017-10-27T06:26:24.461Z,93.00
2017-10-27T06:28:52.578Z,93.00
2017-10-27T06:31:21.190Z,92.60
2017-10-27T06:33:49.368Z,92.90
2017-10-27T06:36:17.221Z,92.90
2017-10-27T06:38:45.723Z,93.60
2017-10-27T06:41:13.604Z,93.10
2017-10-27T06:43:41.658Z,93.70
2017-10-27T06:46:09.663Z,94.30
2017-10-27T06:48:39.136Z,95.40
2017-10-27T06:51:07.770Z,95.30
2017-10-27T06:53:35.566Z,95.10
2017-10-27T06:56:03.731Z,95.30
2017-10-27T06:58:31.638Z,94.80
2017-10-27T07:00:59.807Z,95.40
2017-10-27T07:03:27.591Z,95.60
2017-10-27T07:05:56.259Z,95.90
2017-10-27T07:08:26.862Z,95.10
2017-10-27T07:10:55.120Z,95.10
2017-10-27T07:13:22.928Z,95.70
2017-10-27T07:15:50.727Z,94.90
2017-10-27T07:18:19.893Z,96.00
2017-10-27T07:20:47.828Z,96.00
2017-10-27T07:23:15.432Z,94.60
2017-10-27T07:25:43.291Z,95.50
2017-10-27T07:28:11.923Z,95.30
2017-10-27T07:30:39.526Z,95.30
2017-10-27T07:33:07.661Z,96.00
2017-10-27T07:35:35.595Z,96.20
2017-10-27T07:38:04.364Z,94.90
2017-10-27T07:40:32.487Z,94.70
2017-10-27T07:43:00.455Z,95.00
2017-10-27T07:45:28.312Z,95.90
2017-10-27T07:47:56.958Z,94.10
2017-10-27T07:50:26.304Z,95.40
2017-10-27T07:52:54.024Z,95.40
2017-10-27T07:55:22.326Z,96.20
2017-10-27T07:57:50.496Z,96.00
2017-10-27T08:00:18.633Z,96.70
2017-10-27T08:02:46.310Z,97.20
2017-10-27T08:05:14.802Z,97.20
2017-10-27T08:07:43.258Z,98.10
2017-10-27T08:10:11.511Z,97.40
2017-10-27T08:12:39.349Z,97.00
2017-10-27T08:15:07.365Z,96.10
2017-10-27T08:17:35.791Z,94.90
2017-10-27T08:20:04.565Z,95.20
2017-10-27T08:22:32.309Z,95.90
2017-10-27T08:25:00.604Z,96.60
2017-10-27T08:27:28.431Z,94.30
2017-10-27T08:29:56.075Z,94.00
2017-10-27T08:32:24.354Z,95.10
2017-10-27T08:34:52.621Z,94.00
2017-10-27T08:37:20.915Z,93.60
2017-10-27T08:39:48.856Z,94.60
2017-10-27T08:42:16.932Z,95.10
2017-10-27T08:44:45.064Z,94.70
2017-10-27T08:47:13.689Z,94.20
2017-10-27T08:49:41.977Z,94.10
2017-10-27T08:52:10.009Z,94.30
2017-10-27T08:54:38.628Z,92.70
2017-10-27T08:57:06.807Z,92.70
2017-10-27T08:59:34.732Z,93.70
2017-10-27T09:02:03.889Z,92.30
2017-10-27T09:04:31.553Z,92.30
2017-10-27T09:06:59.572Z,92.30
2017-10-27T09:09:28.055Z,93.00
2017-10-27T09:11:56.127Z,92.90
2017-10-27T09:14:25.212Z,90.50
2017-10-27T09:16:53.531Z,90.40
2017-10-27T09:19:21.674Z,89.60
2017-10-27T09:21:49.985Z,90.40
2017-10-27T09:24:18.116Z,90.50
2017-10-27T09:26:47.202Z,90.00
2017-10-27T09:29:15.626Z,89.90
2017-10-27T09:31:44.479Z,88.60
2017-10-27T09:34:12.829Z,88.90
2017-10-27T09:36:40.425Z,89.00
2017-10-27T09:39:09.077Z,89.50
2017-10-27T09:41:37.024Z,89.50
2017-10-27T09:44:05.503Z,89.70
2017-10-27T09:46:33.734Z,88.60
2017-10-27T09:49:01.626Z,87.00
2017-10-27T09:51:29.480Z,87.90
2017-10-27T09:53:58.284Z,86.60
2017-10-27T09:56:26.048Z,84.80
2017-10-27T09:58:54.396Z,84.60
2017-10-27T10:01:23.208Z,84.80
2017-10-27T10:03:51.695Z,84.30
2017-10-27T10:06:19.642Z,84.20
2017-10-27T10:08:49.027Z,81.50
2017-10-27T10:11:17.080Z,81.70
2017-10-27T10:13:45.041Z,83.00
2017-10-27T10:16:13.143Z,81.80
2017-10-27T10:18:41.296Z,78.50
2017-10-27T10:21:10.240Z,79.00
2017-10-27T10:23:38.258Z,73.30
2017-10-27T10:26:06.414Z,75.20
2017-10-27T10:28:34.139Z,75.00
2017-10-27T10:31:02.313Z,76.10
2017-10-27T10:33:31.298Z,76.20
2017-10-27T10:35:59.419Z,76.10
2017-10-27T10:38:28.764Z,74.90
2017-10-27T10:40:57.070Z,76.60
2017-10-27T10:45:08.757Z,70.70
2017-10-27T10:47:37.120Z,69.20
2017-10-27T10:50:05.407Z,71.70
2017-10-27T10:52:32.917Z,71.70
2017-10-27T10:55:00.472Z,70.00
2017-10-27T10:57:28.017Z,68.90
2017-10-27T10:59:55.635Z,67.90
2017-10-27T11:02:23.131Z,69.40
2017-10-27T11:04:50.658Z,68.00
2017-10-27T11:07:18.957Z,72.10
2017-10-27T11:09:46.471Z,72.00
2017-10-27T11:12:14.050Z,67.80
2017-10-27T11:14:41.580Z,65.90
2017-10-27T11:17:09.166Z,63.70
2017-10-27T11:19:36.715Z,63.80
2017-10-27T11:22:04.280Z,60.20
2017-10-27T11:24:31.848Z,58.00
2017-10-27T11:26:59.408Z,58.40
2017-10-27T11:29:27.748Z,56.70
2017-10-27T11:31:55.556Z,56.80
2017-10-27T11:34:23.111Z,54.90
2017-10-27T11:36:51.421Z,57.10
2017-10-27T11:39:19.052Z,57.10
2017-10-27T11:41:46.608Z,59.10
2017-10-27T11:44:14.893Z,61.20
2017-10-27T11:46:42.445Z,61.20
2017-10-27T11:49:10.018Z,59.10
2017-10-27T11:51:38.290Z,60.20
2017-10-27T11:54:06.625Z,60.90
2017-10-27T11:56:34.133Z,60.90
2017-10-27T11:59:01.662Z,61.90
2017-10-27T12:01:29.225Z,62.10
2017-10-27T12:03:56.764Z,61.90
2017-10-27T12:06:24.314Z,63.10
2017-10-27T12:08:51.850Z,63.70
2017-10-27T12:11:19.412Z,64.00
2017-10-27T12:13:47.013Z,62.90
2017-10-27T12:16:14.551Z,61.40
2017-10-27T12:18:42.073Z,62.00
2017-10-27T12:21:09.627Z,61.70
2017-10-27T12:23:37.197Z,63.50
2017-10-27T12:26:04.784Z,62.40
2017-10-27T12:28:32.298Z,60.90
2017-10-27T12:31:00.584Z,56.60
2017-10-27T12:33:28.121Z,56.60
2017-10-27T12:35:56.389Z,55.20
2017-10-27T12:38:23.959Z,55.30
2017-10-27T12:40:52.314Z,55.90
2017-10-27T12:43:19.861Z,55.90
2017-10-27T12:45:47.401Z,52.00
2017-10-27T12:48:14.947Z,53.10
2017-10-27T12:50:42.509Z,52.70
2017-10-27T12:53:10.070Z,52.60
2017-10-27T12:55:37.617Z,54.50
2017-10-27T12:58:05.906Z,59.20
2017-10-27T13:00:33.448Z,59.10
2017-10-27T13:03:01.365Z,59.30
2017-10-27T13:05:28.877Z,59.10
2017-10-27T13:07:56.428Z,59.30
2017-10-27T13:10:24.753Z,56.40
2017-10-27T13:12:52.277Z,56.50
2017-10-27T13:15:20.557Z,53.00
2017-10-27T13:17:48.111Z,52.90
2017-10-27T13:20:15.646Z,51.50
2017-10-27T13:22:43.603Z,51.90
2017-10-27T13:25:11.142Z,51.20
2017-10-27T13:27:38.681Z,52.00
2017-10-27T13:30:06.975Z,54.20
2017-10-27T13:32:35.302Z,54.20
2017-10-27T13:35:03.253Z,54.20
2017-10-27T13:37:30.760Z,52.50
2017-10-27T13:39:58.613Z,52.60
2017-10-27T13:42:26.150Z,53.00
2017-10-27T13:44:53.713Z,54.50
2017-10-27T13:47:21.270Z,56.50
2017-10-27T13:49:48.785Z,59.40
2017-10-27T13:52:17.088Z,59.80
2017-10-27T13:54:44.646Z,59.60
2017-10-27T13:57:12.235Z,61.50
2017-10-27T13:59:39.795Z,59.50
2017-10-27T14:02:07.388Z,59.20
2017-10-27T14:04:35.699Z,56.90
2017-10-27T14:07:03.246Z,56.80
2017-10-27T14:09:30.789Z,55.50
2017-10-27T14:11:59.041Z,55.20
2017-10-27T14:14:26.646Z,53.60
2017-10-27T14:16:54.163Z,54.10
2017-10-27T14:19:21.679Z,54.60
2017-10-27T14:41:58.305Z,52.30
2017-10-27T14:44:25.944Z,51.10
2017-10-27T14:59:01.076Z,50.10
2017-10-27T15:01:28.636Z,50.20
2017-10-27T15:03:56.144Z,50.70
2017-10-27T15:06:24.480Z,52.90
2017-10-27T15:08:52.114Z,52.80
2017-10-27T15:11:19.619Z,53.40
2017-10-27T15:13:47.185Z,54.80
2017-10-27T15:16:14.744Z,54.00
2017-10-27T15:18:42.269Z,55.60
2017-10-27T15:21:09.832Z,56.50
2017-10-27T15:23:37.440Z,57.50
2017-10-27T15:26:04.987Z,57.60
2017-10-27T15:28:32.504Z,56.80
2017-10-27T15:31:00.083Z,57.50
2017-10-27T15:33:27.591Z,58.50
2017-10-27T15:35:55.160Z,59.30
2017-10-27T15:38:22.701Z,60.40
2017-10-27T15:40:50.733Z,62.00
2017-10-27T15:43:18.338Z,63.30
2017-10-27T15:45:46.369Z,64.90
2017-10-27T15:48:13.904Z,64.00
2017-10-27T15:50:41.398Z,64.40
2017-10-27T15:53:10.505Z,64.60
2017-10-27T15:55:38.776Z,66.00
2017-10-27T15:58:06.338Z,65.90
2017-10-27T16:00:33.874Z,65.30
2017-10-27T16:03:01.756Z,66.60
2017-10-27T16:05:29.316Z,67.10
2017-10-27T16:07:56.826Z,66.70
2017-10-27T16:10:24.371Z,67.00
2017-10-27T16:12:51.906Z,67.30
2017-10-27T16:15:20.245Z,68.20
2017-10-27T16:17:47.765Z,68.10
2017-10-27T16:20:15.292Z,68.60
2017-10-27T16:22:43.585Z,68.80
2017-10-27T16:25:12.031Z,69.20
2017-10-27T16:27:39.552Z,69.20
2017-10-27T16:30:07.058Z,69.80
2017-10-27T16:32:34.880Z,69.90
2017-10-27T16:35:02.441Z,70.50
2017-10-27T16:37:29.934Z,70.70
2017-10-27T16:39:57.505Z,71.20
2017-10-27T16:42:25.129Z,71.40
2017-10-27T16:44:52.634Z,72.00
2017-10-27T16:47:20.154Z,72.50
2017-10-27T16:49:47.688Z,72.10
2017-10-27T16:52:15.221Z,72.10
2017-10-27T16:54:43.492Z,72.20
2017-10-27T16:57:11.021Z,72.00
2017-10-27T16:59:38.545Z,72.30
2017-10-27T17:02:06.099Z,72.20
2017-10-27T17:04:33.614Z,72.60
2017-10-27T17:07:01.147Z,72.70
2017-10-27T17:09:28.671Z,73.20
2017-10-27T17:11:56.168Z,73.10
2017-10-27T17:14:23.695Z,72.80
2017-10-27T17:16:51.221Z,73.30
2017-10-27T17:19:18.799Z,73.20
2017-10-27T17:21:46.383Z,72.50
2017-10-27T17:24:13.897Z,72.10
2017-10-27T17:26:41.424Z,71.40
2017-10-27T17:29:08.961Z,71.50
2017-10-27T17:31:36.516Z,71.10
2017-10-27T17:34:04.065Z,70.50
2017-10-27T17:36:31.564Z,70.30
2017-10-27T17:38:59.098Z,70.20
2017-10-27T17:41:26.595Z,70.60
2017-10-27T17:43:54.149Z,69.90
2017-10-27T17:46:21.695Z,69.30
2017-10-27T17:48:49.260Z,69.70
2017-10-27T17:51:17.327Z,70.10
2017-10-27T17:53:44.860Z,70.40
2017-10-27T17:56:12.373Z,70.90
2017-10-27T17:58:40.709Z,71.40
2017-10-27T18:01:08.219Z,71.40
2017-10-27T18:03:35.716Z,71.20
2017-10-27T18:06:03.428Z,70.40
2017-10-27T18:08:31.119Z,70.50
2017-10-27T18:10:58.625Z,70.50
2017-10-27T18:13:26.136Z,69.80
2017-10-27T18:15:53.704Z,70.80
2017-10-27T18:18:21.226Z,70.20
2017-10-27T18:20:49.531Z,70.00
2017-10-27T18:23:17.960Z,69.80
2017-10-27T18:25:45.478Z,70.10
2017-10-27T18:28:13.015Z,70.30
2017-10-27T18:30:40.585Z,70.40
2017-10-27T18:33:08.144Z,70.30
2017-10-27T18:35:35.656Z,69.50
2017-10-27T18:38:03.192Z,69.50
2017-10-27T18:40:30.742Z,69.20
2017-10-27T18:42:58.249Z,68.90
2017-10-27T18:45:26.545Z,68.70
2017-10-27T18:47:54.632Z,68.60
2017-10-27T18:50:22.183Z,68.20
2017-10-27T18:52:49.800Z,68.60
2017-10-27T18:55:17.344Z,68.30
2017-10-27T18:57:44.868Z,68.40
2017-10-27T19:00:12.441Z,68.10
2017-10-27T19:02:40.000Z,68.00
2017-10-27T19:05:07.558Z,68.00
2017-10-27T19:07:35.067Z,68.50
2017-10-27T19:10:02.626Z,68.90
2017-10-27T19:12:30.489Z,69.10
2017-10-27T19:14:57.990Z,69.60
2017-10-27T19:17:25.520Z,68.90
2017-10-27T19:19:53.087Z,69.10
2017-10-27T19:22:20.594Z,68.90
2017-10-27T19:24:48.101Z,69.30
2017-10-27T19:27:16.860Z,69.00
2017-10-27T19:29:44.380Z,69.00
2017-10-27T19:32:11.937Z,69.60
2017-10-27T19:34:39.676Z,69.80
2017-10-27T19:37:07.226Z,70.00
2017-10-27T19:39:35.491Z,69.90
2017-10-27T19:42:03.014Z,69.80
2017-10-27T19:44:30.570Z,70.50
2017-10-27T19:46:58.071Z,70.70
2017-10-27T19:49:25.590Z,71.20
2017-10-27T19:51:53.142Z,71.10
2017-10-27T19:54:20.704Z,71.00
2017-10-27T19:56:48.211Z,71.60
2017-10-27T19:59:16.544Z,72.40
2017-10-27T20:01:44.116Z,72.30
2017-10-27T20:04:11.612Z,72.30
2017-10-27T20:06:39.208Z,72.20
2017-10-27T20:09:06.749Z,72.20
2017-10-27T20:11:35.137Z,72.00
2017-10-27T20:14:02.635Z,72.00
2017-10-27T20:16:30.119Z,71.80
2017-10-27T20:18:57.645Z,71.90
2017-10-27T20:21:25.342Z,72.20
2017-10-27T20:23:52.891Z,72.70
2017-10-27T20:26:21.178Z,73.50
2017-10-27T20:28:48.684Z,73.50
2017-10-27T20:31:16.209Z,74.10
2017-10-27T20:33:43.710Z,74.40
2017-10-27T20:36:11.255Z,74.80
2017-10-27T20:38:38.776Z,75.00
2017-10-27T20:41:06.550Z,75.40
2017-10-27T20:43:34.062Z,75.80
2017-10-27T20:46:01.612Z,76.70
2017-10-27T20:48:29.116Z,77.80
2017-10-27T20:50:56.612Z,78.20
2017-10-27T20:53:24.143Z,78.50
2017-10-27T20:55:51.738Z,79.10
2017-10-27T20:58:20.023Z,78.90
2017-10-27T21:00:47.510Z,79.30
2017-10-27T21:03:15.031Z,79.40
2017-10-27T21:05:42.783Z,80.30
2017-10-27T21:08:10.332Z,80.50
2017-10-27T21:10:37.859Z,81.20
2017-10-27T21:13:05.410Z,81.50
2017-10-27T21:15:32.912Z,81.70
2017-10-27T21:18:00.441Z,81.40
2017-10-27T21:20:28.717Z,81.80
2017-10-27T21:22:56.256Z,81.70
2017-10-27T21:25:24.239Z,81.40
2017-10-27T21:27:52.520Z,80.90
2017-10-27T21:30:20.007Z,80.90
2017-10-27T21:32:47.577Z,81.20
2017-10-27T21:35:15.122Z,81.00
2017-10-27T21:37:42.660Z,81.10
2017-10-27T21:40:10.936Z,81.20
2017-10-27T21:42:38.455Z,81.10
2017-10-27T21:45:05.958Z,81.50
2017-10-27T21:47:33.984Z,81.80
2017-10-27T21:50:01.516Z,82.10
2017-10-27T21:52:29.063Z,82.30
2017-10-27T21:54:56.569Z,82.50
2017-10-27T21:57:24.117Z,82.80
2017-10-27T21:59:51.628Z,82.50
2017-10-27T22:02:19.120Z,82.50
2017-10-27T22:04:46.653Z,82.20
2017-10-27T22:07:14.184Z,82.50
2017-10-27T22:09:42.463Z,82.10
2017-10-27T22:12:10.067Z,82.00
2017-10-27T22:14:37.595Z,81.80
2017-10-27T22:17:05.097Z,81.60
2017-10-27T22:19:32.609Z,81.60
2017-10-27T22:22:00.174Z,81.90
2017-10-27T22:24:28.442Z,81.70
2017-10-27T22:26:56.731Z,81.80
2017-10-27T22:29:24.222Z,81.80
2017-10-27T22:31:51.768Z,81.80
2017-10-27T22:34:19.283Z,81.70
2017-10-27T22:36:47.634Z,82.10
2017-10-27T22:39:15.152Z,82.00
2017-10-27T22:41:42.669Z,81.80
2017-10-27T22:44:10.235Z,82.30
2017-10-27T22:46:37.738Z,82.20
2017-10-27T22:49:05.235Z,82.50
2017-10-27T22:51:32.743Z,82.20
2017-10-27T22:54:00.259Z,82.00
2017-10-27T22:56:27.795Z,81.80
2017-10-27T22:58:55.296Z,81.80
2017-10-27T23:01:22.829Z,81.50
2017-10-27T23:03:50.347Z,81.20
2017-10-27T23:06:17.844Z,81.20
2017-10-27T23:08:45.397Z,81.50
2017-10-27T23:11:12.892Z,81.70
2017-10-27T23:13:40.400Z,82.00
2017-10-27T23:16:07.953Z,82.20
2017-10-27T23:18:35.484Z,82.60
2017-10-27T23:21:03.006Z,82.70
2017-10-27T23:23:30.491Z,82.80
2017-10-27T23:25:58.336Z,82.40
2017-10-27T23:28:26.672Z,83.00
2017-10-27T23:30:54.175Z,82.40
2017-10-27T23:33:22.492Z,81.70
2017-10-27T23:35:50.012Z,81.70
2017-10-27T23:38:18.322Z,81.30
2017-10-27T23:40:45.836Z,81.30
2017-10-27T23:43:13.390Z,81.20
2017-10-27T23:45:40.879Z,81.00
2017-10-27T23:48:08.419Z,81.40
2017-10-27T23:50:35.923Z,81.70
2017-10-27T23:53:03.415Z,80.90
2017-10-27T23:55:30.949Z,81.80
2017-10-27T23:57:58.456Z,82.30
